Time;durP1;ratioP1;P1;durP2;ratioP2;P2;SDS_P1;SDS_P2;PMS_P1;PMS_P2;Temp;Humidity;BMP_temperature;BMP_pressure;BME280_temperature;BME280_humidity;BME280_pressure;Samples;Min_cycle;Max_cycle;Signal;HPM_P1;HPM_P2
2022/11/07 04:59:30;;;;;;;3.70;2.70;;;;;;;13.82;81.05;101744.88;5066870;28;20410;-80
2022/11/07 05:01:56;;;;;;;4.95;3.20;;;;;;;13.82;79.81;101727.50;5066044;28;20033;-80
2022/11/07 05:04:21;;;;;;;8.35;5.10;;;;;;;14.07;78.46;101716.84;5067482;28;20094;-80
2022/11/07 05:06:47;;;;;;;5.15;3.15;;;;;;;14.31;76.91;101725.25;5066198;28;20021;-80
2022/11/07 05:09:14;;;;;;;12.15;3.58;;;;;;;14.55;76.19;101734.56;5065502;28;20513;-80
2022/11/07 05:11:39;;;;;;;7.30;3.97;;;;;;;14.87;75.38;101748.63;5067016;28;20025;-80
2022/11/07 05:14:05;;;;;;;12.10;4.97;;;;;;;14.95;74.12;101721.34;5032118;28;20036;-79
2022/11/07 05:16:30;;;;;;;14.70;9.70;;;;;;;14.99;73.64;101744.56;5065860;28;20645;-90
2022/11/07 05:18:56;;;;;;;6.90;3.55;;;;;;;14.83;73.38;101733.19;5066219;28;20035;-89
2022/11/07 05:21:21;;;;;;;5.43;3.00;;;;;;;14.96;73.18;101755.16;5066293;28;20029;-85
2022/11/07 05:23:47;;;;;;;23.10;6.00;;;;;;;14.98;73.25;101765.50;5065974;28;20028;-84
2022/11/07 05:26:12;;;;;;;6.45;4.18;;;;;;;14.98;75.60;101768.94;5065620;28;20051;-91
2022/11/07 05:28:38;;;;;;;8.55;3.90;;;;;;;14.95;73.46;101766.50;5049330;28;20092;-91
2022/11/07 05:31:03;;;;;;;6.30;2.78;;;;;;;14.90;73.14;101771.06;5047623;28;20036;-91
2022/11/07 05:33:29;;;;;;;7.72;3.40;;;;;;;14.84;73.31;101772.19;5049009;28;20032;-96
2022/11/07 05:35:55;;;;;;;7.47;4.85;;;;;;;15.00;74.19;101764.47;5049499;28;20496;-82
2022/11/07 05:38:20;;;;;;;7.13;4.43;;;;;;;15.58;71.08;101779.81;5048930;28;20078;-82
2022/11/07 05:40:46;;;;;;;9.95;4.07;;;;;;;15.43;70.62;101781.41;5049702;28;20035;-87
2022/11/07 05:43:12;;;;;;;13.05;3.85;;;;;;;15.28;70.94;101791.78;5066714;28;20127;-95
2022/11/07 05:45:39;;;;;;;5.35;3.20;;;;;;;15.09;71.29;101787.50;5050369;28;20123;-94
2022/11/07 05:48:07;;;;;;;11.00;5.03;;;;;;;14.97;72.61;101798.53;5002026;28;20046;-91
2022/11/07 05:50:32;;;;;;;10.10;4.32;;;;;;;14.89;72.73;101793.69;5025140;28;20044;-80
2022/11/07 05:52:58;;;;;;;6.55;4.47;;;;;;;14.90;72.90;101807.53;5027033;28;20030;-90
2022/11/07 05:55:23;;;;;;;12.13;3.78;;;;;;;14.97;72.88;101808.09;5025835;28;20037;-89
2022/11/07 05:57:49;;;;;;;5.50;3.00;;;;;;;15.01;72.95;101810.47;5009872;28;20120;-89
2022/11/07 06:00:15;;;;;;;13.80;6.63;;;;;;;15.04;72.50;101815.53;5026004;28;20071;-86
2022/11/07 06:02:41;;;;;;;8.15;4.22;;;;;;;14.86;72.34;101795.59;4991749;28;20060;-91
2022/11/07 06:05:07;;;;;;;9.13;4.07;;;;;;;14.92;72.49;101826.53;5009327;28;20575;-91
2022/11/07 06:07:35;;;;;;;10.77;3.38;;;;;;;14.98;72.14;101831.47;5006166;28;20034;-91
2022/11/07 06:10:01;;;;;;;3.40;2.38;;;;;;;14.93;71.79;101820.41;5015724;28;20029;-89
2022/11/07 06:12:27;;;;;;;13.15;4.18;;;;;;;15.06;75.90;101844.97;5012610;28;20034;-87
2022/11/07 06:14:53;;;;;;;10.10;5.22;;;;;;;15.27;73.97;101831.81;4978470;28;20479;-91
2022/11/07 06:17:18;;;;;;;11.50;3.92;;;;;;;15.20;72.33;101837.31;4992263;28;20478;-88
2022/11/07 06:19:44;;;;;;;6.60;3.33;;;;;;;15.20;71.51;101855.56;5011600;28;20460;-90
2022/11/07 06:22:09;;;;;;;6.63;2.67;;;;;;;15.11;71.34;101842.97;4995981;28;20491;-90
2022/11/07 06:24:35;;;;;;;7.97;3.53;;;;;;;15.16;71.77;101840.16;5010895;28;20033;-88
2022/11/07 06:27:00;;;;;;;7.63;4.22;;;;;;;15.21;71.71;101865.06;4995342;28;20084;-89
2022/11/07 06:29:26;;;;;;;11.75;4.35;;;;;;;15.18;72.67;101860.03;5012476;28;20030;-86
2022/11/07 06:31:51;;;;;;;5.32;2.75;;;;;;;15.14;71.20;101852.41;5011907;28;20167;-91
2022/11/07 06:34:17;;;;;;;9.10;3.75;;;;;;;15.07;72.37;101864.91;5011265;28;20529;-84
2022/11/07 06:36:42;;;;;;;9.45;3.88;;;;;;;15.06;72.11;101858.00;5011219;28;20391;-84
2022/11/07 06:39:08;;;;;;;9.13;4.38;;;;;;;15.14;72.05;101879.34;5010347;28;20053;-92
2022/11/07 06:41:33;;;;;;;9.82;6.57;;;;;;;15.11;72.77;101863.84;4993019;28;20164;-88
2022/11/07 06:43:59;;;;;;;15.43;7.70;;;;;;;15.23;72.16;101877.19;5010342;28;20034;-92
2022/11/07 06:46:24;;;;;;;6.57;3.67;;;;;;;15.14;72.00;101862.84;5009960;28;20065;-91
2022/11/07 06:48:50;;;;;;;7.43;3.40;;;;;;;15.25;71.57;101871.00;4994802;28;20088;-89
2022/11/07 06:51:16;;;;;;;11.98;3.85;;;;;;;15.16;71.05;101856.66;5011023;28;20026;-85
2022/11/07 06:53:41;;;;;;;4.90;3.15;;;;;;;15.16;71.05;101861.88;5010835;28;20163;-85
2022/11/07 06:56:07;;;;;;;12.95;3.30;;;;;;;15.00;71.47;101849.63;5011633;28;20030;-86
2022/11/07 06:58:33;;;;;;;8.32;3.65;;;;;;;15.04;71.74;101865.03;4994285;28;20075;-87
2022/11/07 07:01:07;;;;;;;10.55;3.42;;;;;;;15.05;71.96;101873.72;4995469;28;20069;-90
2022/11/07 07:03:32;;;;;;;8.32;3.70;;;;;;;15.13;71.59;101880.25;5010593;28;20145;-94
2022/11/07 07:06:02;;;;;;;6.57;2.95;;;;;;;15.18;71.46;101867.84;4994025;28;20069;-92
2022/11/07 07:08:27;;;;;;;12.88;3.33;;;;;;;15.19;71.20;101866.91;4992608;28;20109;-90
2022/11/07 07:10:53;;;;;;;6.65;3.05;;;;;;;15.13;71.09;101859.38;4977714;28;20042;-88
2022/11/07 07:13:18;;;;;;;8.25;4.78;;;;;;;15.28;70.57;101875.22;4993230;28;20120;-88
2022/11/07 07:15:54;;;;;;;8.68;2.72;;;;;;;15.23;70.41;101859.78;4993970;28;20041;-91
2022/11/07 07:18:20;;;;;;;5.15;2.78;;;;;;;15.20;70.70;101845.16;5012372;28;20042;-93
2022/11/07 07:20:48;;;;;;;6.30;3.53;;;;;;;15.14;70.11;101831.56;4992826;28;20041;-88
2022/11/07 07:23:15;;;;;;;4.57;2.70;;;;;;;15.25;70.69;101857.97;5008241;28;20109;-87
2022/11/07 07:25:40;;;;;;;7.05;3.25;;;;;;;15.27;70.04;101848.31;4979907;28;20037;-92
2022/11/07 07:28:06;;;;;;;11.60;2.80;;;;;;;15.14;70.11;101831.56;4994348;28;20032;-88
2022/11/07 07:30:31;;;;;;;6.13;2.95;;;;;;;15.12;69.87;101834.25;5010288;28;20042;-88
2022/11/07 07:32:57;;;;;;;5.55;3.45;;;;;;;15.23;70.03;101861.53;5011093;28;20495;-83
2022/11/07 07:35:22;;;;;;;9.40;3.40;;;;;;;15.12;69.99;101829.03;5011129;28;20498;-91
2022/11/07 07:37:49;;;;;;;5.53;2.72;;;;;;;15.35;69.87;101860.97;5010607;28;20100;-88
2022/11/07 07:40:15;;;;;;;9.90;4.22;;;;;;;15.33;69.65;101857.56;4994791;28;20022;-93
2022/11/07 07:42:42;;;;;;;10.32;4.60;;;;;;;15.27;69.81;101863.09;4995022;28;20063;-92
2022/11/07 07:45:09;;;;;;;9.27;4.38;;;;;;;15.34;69.53;101862.75;4993852;28;20036;-88
2022/11/07 07:47:34;;;;;;;5.88;3.03;;;;;;;15.28;69.02;101865.63;4971866;28;20572;-89
2022/11/07 07:50:00;;;;;;;6.75;2.83;;;;;;;15.31;68.83;101864.63;4994066;28;20192;-92
2022/11/07 07:52:25;;;;;;;6.20;2.92;;;;;;;15.27;69.02;101863.94;4992780;28;20537;-88
2022/11/07 07:54:51;;;;;;;5.90;3.13;;;;;;;15.33;68.68;101865.41;5008318;28;20117;-86
2022/11/07 07:57:16;;;;;;;14.75;4.40;;;;;;;15.32;68.65;101854.13;5008746;28;20033;-86
2022/11/07 07:59:42;;;;;;;7.03;4.25;;;;;;;15.31;68.61;101846.38;5009668;28;20030;-82
2022/11/07 08:02:10;;;;;;;12.45;3.80;;;;;;;15.48;68.65;101875.91;5009271;28;20095;-85
2022/11/07 08:04:36;;;;;;;14.32;4.03;;;;;;;15.57;67.60;101872.00;4992601;28;20037;-88
2022/11/07 08:07:01;;;;;;;20.92;11.75;;;;;;;15.45;67.94;101854.38;5009811;28;20030;-86
2022/11/07 08:09:30;;;;;;;14.70;4.30;;;;;;;15.57;67.38;101861.59;5008450;28;20022;-85
2022/11/07 08:11:55;;;;;;;16.63;9.05;;;;;;;15.51;67.51;101854.06;5010065;28;20130;-86
2022/11/07 08:14:21;;;;;;;12.63;6.32;;;;;;;15.57;67.71;101860.75;4993430;28;20042;-91
2022/11/07 08:16:49;;;;;;;14.60;5.28;;;;;;;15.55;67.34;101858.22;5009050;28;20049;-94
2022/11/07 08:19:14;;;;;;;9.82;3.83;;;;;;;15.69;67.86;101871.44;5013769;28;20141;-93
2022/11/07 08:21:40;;;;;;;19.13;3.45;;;;;;;15.74;66.94;101852.94;4993482;28;20036;-87
2022/11/07 08:24:06;;;;;;;7.57;3.13;;;;;;;15.84;66.57;101863.75;5009457;28;20088;-81
2022/11/07 08:26:31;;;;;;;12.10;4.22;;;;;;;15.88;66.52;101873.09;5009163;28;20033;-81
2022/11/07 08:28:57;;;;;;;6.57;3.70;;;;;;;15.85;66.64;101868.06;5009025;28;20041;-83
2022/11/07 08:31:22;;;;;;;8.02;3.78;;;;;;;15.96;66.57;101873.56;5009790;28;20030;-87
2022/11/07 08:33:48;;;;;;;5.00;2.58;;;;;;;15.97;66.32;101880.47;4991248;28;20513;-84
2022/11/07 08:36:13;;;;;;;7.78;3.35;;;;;;;15.97;66.74;101880.47;4991203;28;20395;-87
2022/11/07 08:38:39;;;;;;;8.18;3.88;;;;;;;16.04;66.51;101871.41;5008947;28;20068;-88
2022/11/07 08:41:04;;;;;;;7.72;3.25;;;;;;;16.19;65.46;101878.41;4992312;28;20029;-82
2022/11/07 08:43:30;;;;;;;6.18;3.33;;;;;;;16.15;65.81;101874.28;5007990;28;20033;-81
2022/11/07 08:45:56;;;;;;;13.43;5.32;;;;;;;16.11;66.46;101871.91;4991380;28;20112;-88
2022/11/07 08:48:21;;;;;;;11.57;3.90;;;;;;;16.25;66.06;101874.66;4984858;28;20054;-91
2022/11/07 08:50:51;;;;;;;7.00;3.95;;;;;;;16.18;65.54;101853.22;4992767;28;20026;-82
2022/11/07 08:53:16;;;;;;;6.60;3.47;;;;;;;16.36;65.46;101880.16;5008169;28;20041;-83
2022/11/07 08:55:42;;;;;;;5.75;3.08;;;;;;;16.44;65.70;101888.41;4992154;28;20519;-88
2022/11/07 08:58:07;;;;;;;9.48;3.83;;;;;;;16.47;65.16;101879.56;4991878;28;20057;-87
2022/11/07 09:00:33;;;;;;;9.38;3.90;;;;;;;16.47;65.68;101884.78;4992410;28;20065;-88
2022/11/07 09:03:03;;;;;;;12.40;4.20;;;;;;;16.65;65.18;101883.81;4998296;28;20389;-91
2022/11/07 09:05:28;;;;;;;7.90;3.50;;;;;;;16.81;64.46;101889.03;4974888;28;20061;-84
2022/11/07 09:07:54;;;;;;;7.20;3.22;;;;;;;16.90;63.78;101883.31;4990325;28;20118;-88
2022/11/07 09:10:19;;;;;;;8.25;3.83;;;;;;;17.01;62.73;101895.78;4989952;28;20041;-84
2022/11/07 09:12:48;;;;;;;9.82;3.70;;;;;;;17.01;63.21;101894.03;4990273;28;20518;-84
2022/11/07 09:15:14;;;;;;;5.20;2.95;;;;;;;17.01;63.48;101887.94;4989094;28;20434;-88
2022/11/07 09:17:39;;;;;;;8.60;3.92;;;;;;;17.09;63.82;101893.59;4988092;28;20037;-85
2022/11/07 09:20:06;;;;;;;9.18;4.72;;;;;;;17.14;63.12;101886.34;4975539;28;20156;-84
2022/11/07 09:23:15;;;;;;;14.70;5.03;;;;;;;17.25;62.88;101902.28;4979087;28;20439;-88
2022/11/07 09:25:40;;;;;;;8.98;3.40;;;;;;;17.26;61.90;101901.34;5008177;28;20030;-88
2022/11/07 09:28:06;;;;;;;8.98;4.25;;;;;;;17.07;62.09;101879.75;5010176;28;20036;-85
2022/11/07 09:30:31;;;;;;;9.57;3.80;;;;;;;17.03;62.37;101875.66;4992222;28;20034;-91
2022/11/07 09:32:57;;;;;;;8.23;4.28;;;;;;;17.15;62.24;101877.56;5008321;28;20057;-89
2022/11/07 09:35:23;;;;;;;17.55;5.43;;;;;;;17.20;62.37;101885.97;4989528;28;20062;-86
2022/11/07 09:37:49;;;;;;;8.80;4.72;;;;;;;17.18;62.54;101866.94;4991514;28;20034;-88
2022/11/07 09:40:39;;;;;;;8.07;4.15;;;;;;;17.32;62.32;101890.53;4993447;28;20487;-90
2022/11/07 09:43:44;;;;;;;8.50;4.60;;;;;;;17.25;62.72;101867.44;5008103;28;20069;-88
2022/11/07 09:46:34;;;;;;;11.05;5.05;;;;;;;17.29;62.06;101868.94;5011142;28;20104;-88
2022/11/07 09:49:15;;;;;;;12.35;4.55;;;;;;;17.38;62.24;101869.25;5012885;28;20104;-90
2022/11/07 09:51:54;;;;;;;11.23;5.50;;;;;;;17.39;61.88;101857.00;4994831;28;20491;-91
2022/11/07 09:54:21;;;;;;;11.73;5.18;;;;;;;17.42;62.28;101859.47;4996092;28;20427;-91
2022/11/07 09:56:47;;;;;;;10.82;4.82;;;;;;;17.62;61.39;101869.59;4996444;28;20022;-92
2022/11/07 09:59:21;;;;;;;13.60;5.88;;;;;;;17.67;61.41;101874.56;5005379;28;20065;-91
2022/11/07 10:01:47;;;;;;;12.30;6.50;;;;;;;17.68;61.77;101876.22;5013382;28;20029;-95
2022/11/07 10:04:17;;;;;;;10.57;5.28;;;;;;;17.63;61.10;101852.13;4992528;28;20030;-92
2022/11/07 10:06:51;;;;;;;13.70;7.07;;;;;;;17.85;60.58;101868.25;4995667;28;20022;-87
2022/11/07 10:09:26;;;;;;;15.52;6.75;;;;;;;17.74;61.46;101870.69;4994717;28;20034;-89
2022/11/07 10:12:04;;;;;;;12.02;5.82;;;;;;;17.74;60.57;101875.91;4995829;28;20507;-84
2022/11/07 10:14:32;;;;;;;10.45;5.68;;;;;;;17.75;60.71;101861.88;5011811;28;20029;-95
2022/11/07 10:17:29;;;;;;;13.52;6.05;;;;;;;17.75;60.65;101867.97;5027809;28;20038;-82
2022/11/07 10:20:07;;;;;;;13.07;6.85;;;;;;;17.80;60.63;101865.09;4992350;28;20033;-81
2022/11/07 10:22:38;;;;;;;10.68;5.55;;;;;;;17.75;60.53;101859.28;5011026;28;20498;-81
2022/11/07 10:25:20;;;;;;;11.38;6.00;;;;;;;17.65;60.48;101839.78;5012796;28;20121;-80
2022/11/07 10:28:18;;;;;;;14.03;5.63;;;;;;;17.63;60.52;101855.59;4995641;28;20022;-82
2022/11/07 10:30:47;;;;;;;12.55;6.22;;;;;;;17.66;60.37;101842.31;5005310;28;20042;-83
2022/11/07 10:33:21;;;;;;;15.18;6.15;;;;;;;17.65;60.53;101837.16;4995025;28;20025;-87
2022/11/07 10:35:51;;;;;;;12.73;6.13;;;;;;;17.60;60.31;101821.75;4997361;28;20045;-91
2022/11/07 10:38:20;;;;;;;12.95;6.88;;;;;;;17.68;60.27;101827.34;5011547;28;20396;-92
2022/11/07 10:40:46;;;;;;;11.52;5.47;;;;;;;17.74;60.42;101839.28;5011228;28;20050;-95
2022/11/07 10:43:24;;;;;;;9.50;5.22;;;;;;;17.84;60.27;101840.41;4977528;28;20120;-84
2022/11/07 10:45:50;;;;;;;9.52;5.50;;;;;;;17.88;60.23;101826.19;4994504;28;20025;-85
2022/11/07 10:48:15;;;;;;;12.07;6.35;;;;;;;17.93;60.49;101828.53;4989248;28;20046;-95
2022/11/07 10:50:49;;;;;;;13.20;5.30;;;;;;;17.74;59.83;101797.41;4987228;28;20104;-86
2022/11/07 10:53:18;;;;;;;14.70;6.32;;;;;;;17.93;60.08;101816.28;5010352;28;20041;-86
2022/11/07 10:55:45;;;;;;;11.32;5.05;;;;;;;17.98;59.93;101816.00;5007570;28;20026;-84
2022/11/07 10:58:32;;;;;;;13.10;5.00;;;;;;;17.95;59.89;101814.41;4993744;28;20050;-84
2022/11/07 11:01:08;;;;;;;18.40;5.95;;;;;;;18.01;59.34;101810.59;4994769;28;20029;-85
2022/11/07 11:03:44;;;;;;;13.50;5.05;;;;;;;18.12;59.70;101817.78;4994018;28;20504;-86
2022/11/07 11:06:31;;;;;;;11.18;4.93;;;;;;;18.14;59.61;101813.28;4991003;28;20030;-89
2022/11/07 11:08:57;;;;;;;8.10;5.05;;;;;;;18.15;59.17;101817.59;5010641;28;20033;-92
2022/11/07 11:11:30;;;;;;;17.13;5.40;;;;;;;18.10;58.39;101819.66;4978194;28;20109;-92
2022/11/07 11:14:15;;;;;;;;;;;;;;;18.05;59.17;101806.84;4994862;28;20030;-83
2022/11/07 11:16:41;;;;;;;11.20;5.38;;;;;;;18.08;59.16;101811.03;5011539;28;19913;-82
2022/11/07 11:19:20;;;;;;;14.35;5.47;;;;;;;18.10;58.63;101806.56;5010226;28;20037;-84
2022/11/07 11:21:46;;;;;;;8.52;5.57;;;;;;;18.13;58.36;101793.28;5010258;28;20034;-88
2022/11/07 11:24:29;;;;;;;14.20;5.60;;;;;;;18.21;57.99;101797.09;4997076;28;20045;-88
2022/11/07 11:26:59;;;;;;;14.50;5.55;;;;;;;18.11;57.11;101776.81;4995011;28;20030;-84
2022/11/07 11:29:32;;;;;;;18.50;9.32;;;;;;;18.15;57.63;101787.00;4993587;28;20037;-82
2022/11/07 11:31:57;;;;;;;18.35;6.78;;;;;;;18.19;57.67;101787.63;5014347;28;20052;-94
2022/11/07 11:34:23;;;;;;;15.55;5.70;;;;;;;18.21;57.60;101796.25;4979204;28;20034;-86
2022/11/07 11:37:04;;;;;;;10.48;4.95;;;;;;;18.22;57.66;101777.00;5012528;28;20034;-94
2022/11/07 11:39:38;;;;;;;8.73;4.80;;;;;;;18.33;57.64;101775.38;5010094;28;20048;-82
2022/11/07 11:42:04;;;;;;;14.90;4.93;;;;;;;18.26;57.63;101747.03;4993411;28;20419;-85
2022/11/07 11:44:40;;;;;;;10.88;5.10;;;;;;;18.45;56.72;101778.97;5005815;28;20487;-84
2022/11/07 11:47:30;;;;;;;11.48;5.45;;;;;;;18.41;57.00;101768.81;4991174;28;20046;-83
2022/11/07 11:50:02;;;;;;;10.05;4.50;;;;;;;18.42;56.91;101768.72;4981009;28;20233;-85
2022/11/07 11:52:27;;;;;;;22.55;10.48;;;;;;;18.47;57.09;101768.41;4992527;28;20038;-83
2022/11/07 11:54:55;;;;;;;11.48;5.65;;;;;;;18.59;55.86;101784.19;5009679;28;20030;-84
2022/11/07 11:57:39;;;;;;;14.15;5.60;;;;;;;18.58;55.36;101776.41;4992433;28;20084;-85
2022/11/07 12:00:06;;;;;;;12.45;5.60;;;;;;;18.34;55.85;101747.41;5009075;28;20026;-83
2022/11/07 12:02:59;;;;;;;25.58;12.65;;;;;;;18.72;55.68;101786.06;5009915;28;20388;-94
2022/11/07 12:05:40;;;;;;;71.50;35.85;;;;;;;18.76;55.54;101788.38;5026914;28;20037;-82
2022/11/07 12:08:33;;;;;;;10.07;6.28;;;;;;;18.86;55.28;101780.75;5008591;28;20029;-81
2022/11/07 12:11:27;;;;;;;12.43;5.18;;;;;;;18.82;55.51;101787.97;5009820;28;20040;-80
2022/11/07 12:14:12;;;;;;;9.20;5.07;;;;;;;18.91;55.30;101791.78;5008228;28;20046;-83
2022/11/07 12:16:42;;;;;;;9.90;4.45;;;;;;;18.79;55.11;101769.00;5007164;28;20025;-84
2022/11/07 12:19:14;;;;;;;15.48;5.50;;;;;;;18.76;55.32;101777.03;4995465;28;20034;-81
2022/11/07 12:22:05;;;;;;;10.43;4.80;;;;;;;18.74;55.78;101771.06;5007685;28;20018;-86
2022/11/07 12:24:51;;;;;;;14.85;4.95;;;;;;;18.76;55.08;101772.63;5002790;28;20030;-91
2022/11/07 12:27:55;;;;;;;8.65;4.18;;;;;;;18.68;55.11;101758.34;5008991;28;20040;-88
2022/11/07 12:30:35;;;;;;;29.45;11.65;;;;;;;18.57;55.37;101754.59;5007593;28;20543;-89
2022/11/07 12:33:13;;;;;;;11.77;6.70;;;;;;;18.67;54.84;101759.28;4996505;28;20038;-92
2022/11/07 12:36:33;;;;;;;10.02;5.00;;;;;;;18.61;55.12;101761.34;4993674;28;20036;-88
2022/11/07 12:39:17;;;;;;;24.33;5.78;;;;;;;18.61;55.07;101757.88;5001215;28;20034;-84
2022/11/07 12:42:00;;;;;;;12.98;6.10;;;;;;;18.47;54.98;101735.19;5004537;28;20057;-87
2022/11/07 12:44:29;;;;;;;16.73;6.63;;;;;;;18.61;55.57;101753.50;5007754;28;20098;-87
2022/11/07 12:46:58;;;;;;;8.70;4.85;;;;;;;18.62;55.84;101760.41;4983453;28;20034;-93
2022/11/07 12:49:48;;;;;;;12.57;6.20;;;;;;;18.48;55.55;101747.34;4979410;28;20064;-89
2022/11/07 12:52:38;;;;;;;10.10;5.63;;;;;;;18.43;55.69;101748.59;5009544;28;20553;-87
2022/11/07 12:55:21;;;;;;;14.90;5.93;;;;;;;18.46;55.14;101738.75;5008060;28;20029;-84
2022/11/07 12:57:49;;;;;;;13.57;4.97;;;;;;;18.53;55.17;101754.91;4973748;28;20160;-84
2022/11/07 13:00:25;;;;;;;10.43;5.63;;;;;;;18.51;55.14;101751.56;4992523;28;20025;-85
2022/11/07 13:03:17;;;;;;;17.95;6.30;;;;;;;18.35;55.92;101751.69;5007226;28;20087;-90
2022/11/07 13:06:02;;;;;;;12.57;5.78;;;;;;;18.33;55.73;101738.69;5007133;28;20484;-87
2022/11/07 13:08:40;;;;;;;18.45;6.40;;;;;;;18.38;55.80;101746.25;5008938;28;20538;-91
2022/11/07 13:11:33;;;;;;;11.80;5.95;;;;;;;18.29;55.44;101741.63;5006966;28;20458;-83
2022/11/07 13:14:17;;;;;;;10.73;6.53;;;;;;;18.37;55.77;101749.81;5009714;28;20522;-90
2022/11/07 13:17:18;;;;;;;17.33;8.70;;;;;;;18.28;55.81;101758.25;5023851;28;20030;-85
2022/11/07 13:20:04;;;;;;;29.92;9.30;;;;;;;18.29;55.87;101747.69;5009080;28;20084;-85
2022/11/07 13:22:39;;;;;;;18.60;8.07;;;;;;;18.26;55.89;101758.34;4988831;28;20030;-95
2022/11/07 13:25:10;;;;;;;9.82;5.35;;;;;;;18.20;56.33;101758.75;5009612;28;20050;-93
2022/11/07 13:27:37;;;;;;;12.30;5.82;;;;;;;18.26;56.28;101749.66;5008962;28;20092;-95
2022/11/07 13:30:29;;;;;;;11.38;5.68;;;;;;;18.19;56.38;101737.88;4993686;28;20030;-83
2022/11/07 13:32:55;;;;;;;10.88;4.80;;;;;;;18.24;56.22;101728.81;5013276;28;20038;-83
2022/11/07 13:35:27;;;;;;;10.07;5.47;;;;;;;18.40;56.01;101749.63;5010118;28;20101;-87
2022/11/07 13:38:00;;;;;;;11.63;5.80;;;;;;;18.32;56.52;101746.66;5009399;28;20034;-80
2022/11/07 13:40:35;;;;;;;;;;;;;;;18.33;56.50;101746.56;5011851;28;20116;-91
2022/11/07 13:43:23;;;;;;;8.73;5.45;;;;;;;18.06;57.57;101733.41;4990906;28;20399;-87
2022/11/07 13:46:03;;;;;;;15.70;6.03;;;;;;;18.12;57.71;101749.69;5012486;28;20045;-84
2022/11/07 13:48:34;;;;;;;14.20;6.05;;;;;;;18.14;58.43;101742.56;4992730;28;20077;-87
2022/11/07 13:51:17;;;;;;;19.77;8.23;;;;;;;18.16;58.35;101744.16;5003855;28;20077;-82
2022/11/07 13:53:53;;;;;;;16.10;7.75;;;;;;;18.23;58.03;101744.63;5011157;28;20107;-88
2022/11/07 13:56:29;;;;;;;12.10;6.38;;;;;;;18.14;58.28;101743.41;5012074;28;20411;-82
2022/11/07 13:58:54;;;;;;;25.10;9.50;;;;;;;18.03;58.49;101725.75;5011111;28;20060;-88
2022/11/07 14:01:20;;;;;;;18.38;7.40;;;;;;;18.11;58.10;101742.78;4995348;28;20026;-87
2022/11/07 14:03:45;;;;;;;14.60;6.93;;;;;;;18.00;57.94;101723.34;4992515;28;20104;-91
2022/11/07 14:06:12;;;;;;;15.63;6.18;;;;;;;18.03;57.72;101736.25;5010685;28;20026;-82
2022/11/07 14:08:38;;;;;;;8.75;5.25;;;;;;;17.96;58.20;101740.16;4994923;28;20060;-85
2022/11/07 14:11:06;;;;;;;11.35;4.85;;;;;;;17.73;58.49;101697.09;5010131;28;20033;-80
2022/11/07 14:13:35;;;;;;;12.50;7.00;;;;;;;18.00;58.21;101743.47;4995185;28;20072;-86
2022/11/07 14:16:03;;;;;;;15.70;5.70;;;;;;;17.95;57.97;101733.25;5010302;28;20026;-88
2022/11/07 14:18:32;;;;;;;15.63;5.72;;;;;;;17.83;58.13;101725.31;4977596;28;20494;-89
2022/11/07 14:23:43;;;;;;;14.95;6.03;;;;;;;17.65;58.25;101695.84;5009526;28;20084;-92
2022/11/07 14:26:21;;;;;;;10.52;5.35;;;;;;;17.75;58.50;101723.19;5011919;28;20030;-88
2022/11/07 14:28:47;;;;;;;15.20;5.25;;;;;;;17.75;58.93;101737.09;4996225;28;20506;-86
2022/11/07 14:31:32;;;;;;;12.90;5.25;;;;;;;17.71;58.89;101745.25;4995705;28;20030;-81
2022/11/07 14:34:03;;;;;;;14.70;5.50;;;;;;;17.49;58.82;101717.72;5011431;28;20022;-82
2022/11/07 14:36:28;;;;;;;10.73;5.00;;;;;;;17.61;59.12;101744.09;4994356;28;20034;-83
2022/11/07 14:39:03;;;;;;;8.68;5.03;;;;;;;17.57;59.52;101748.66;4991295;28;20045;-84
2022/11/07 14:41:28;;;;;;;10.65;5.65;;;;;;;17.63;60.07;101757.91;5003073;28;20030;-85
2022/11/07 14:43:54;;;;;;;17.55;6.28;;;;;;;17.57;60.03;101743.41;4994126;28;20030;-88
2022/11/07 14:46:22;;;;;;;12.10;5.70;;;;;;;17.43;58.91;101719.88;4995084;28;20057;-87
2022/11/07 14:48:50;;;;;;;11.60;5.57;;;;;;;17.39;59.07;101710.53;5011698;28;20022;-86
2022/11/07 14:51:25;;;;;;;11.15;5.97;;;;;;;17.61;59.11;101749.34;5001981;28;20038;-85
2022/11/07 14:53:59;;;;;;;12.63;6.60;;;;;;;17.53;59.07;101741.09;4991573;28;20093;-89
2022/11/07 14:56:28;;;;;;;13.07;6.25;;;;;;;17.51;59.20;101742.97;4993146;28;20085;-87
2022/11/07 14:58:54;;;;;;;17.25;6.50;;;;;;;17.56;59.28;101756.59;4991557;28;20089;-91
2022/11/07 15:01:27;;;;;;;12.95;6.10;;;;;;;17.33;59.67;101723.97;4991868;28;20069;-87
2022/11/07 15:03:57;;;;;;;8.88;5.43;;;;;;;17.41;59.54;101735.66;5016434;28;20069;-92
2022/11/07 15:06:28;;;;;;;17.52;6.55;;;;;;;17.43;59.35;101746.88;5009787;28;20080;-93
2022/11/07 15:09:01;;;;;;;10.70;5.50;;;;;;;17.31;59.84;101729.31;4975597;28;20407;-89
2022/11/07 15:11:32;;;;;;;14.20;6.78;;;;;;;17.20;59.85;101713.38;4979369;28;20499;-88
2022/11/07 15:13:58;;;;;;;13.45;6.57;;;;;;;17.35;59.87;101733.41;5008633;28;20056;-82
2022/11/07 15:16:24;;;;;;;18.20;8.30;;;;;;;17.30;59.31;101724.97;4991377;28;20013;-81
2022/11/07 15:18:56;;;;;;;15.00;7.82;;;;;;;17.37;59.67;101730.69;4993507;28;20034;-81
